sensor_id;sensor_type;location;lat;lon;timestamp;temperature;humidity
77693;SHT31;66984;47.404;18.836;2023-08-21T00:00:25;24.55;75.21
77693;SHT31;66984;47.404;18.836;2023-08-21T00:01:28;24.55;75.23
77693;SHT31;66984;47.404;18.836;2023-08-21T00:02:31;24.51;75.29
77693;SHT31;66984;47.404;18.836;2023-08-21T00:03:35;24.51;75.29
77693;SHT31;66984;47.404;18.836;2023-08-21T00:04:38;24.52;75.30
77693;SHT31;66984;47.404;18.836;2023-08-21T00:05:41;24.51;75.30
77693;SHT31;66984;47.404;18.836;2023-08-21T00:06:44;24.49;75.35
77693;SHT31;66984;47.404;18.836;2023-08-21T00:07:47;24.51;75.32
77693;SHT31;66984;47.404;18.836;2023-08-21T00:08:53;24.51;75.39
77693;SHT31;66984;47.404;18.836;2023-08-21T00:09:56;24.51;75.41
77693;SHT31;66984;47.404;18.836;2023-08-21T00:10:59;24.49;75.43
77693;SHT31;66984;47.404;18.836;2023-08-21T00:12:02;24.49;75.51
77693;SHT31;66984;47.404;18.836;2023-08-21T00:13:05;24.48;75.53
77693;SHT31;66984;47.404;18.836;2023-08-21T00:14:08;24.48;75.59
77693;SHT31;66984;47.404;18.836;2023-08-21T00:15:11;24.49;75.63
77693;SHT31;66984;47.404;18.836;2023-08-21T00:16:16;24.48;75.72
77693;SHT31;66984;47.404;18.836;2023-08-21T00:17:19;24.48;75.74
77693;SHT31;66984;47.404;18.836;2023-08-21T00:18:22;24.45;75.77
77693;SHT31;66984;47.404;18.836;2023-08-21T00:19:25;24.45;75.86
77693;SHT31;66984;47.404;18.836;2023-08-21T00:20:28;24.47;75.88
77693;SHT31;66984;47.404;18.836;2023-08-21T00:21:31;24.45;75.84
77693;SHT31;66984;47.404;18.836;2023-08-21T00:22:35;24.47;75.89
77693;SHT31;66984;47.404;18.836;2023-08-21T00:23:38;24.41;75.92
77693;SHT31;66984;47.404;18.836;2023-08-21T00:24:41;24.44;75.95
77693;SHT31;66984;47.404;18.836;2023-08-21T00:25:47;24.42;75.94
77693;SHT31;66984;47.404;18.836;2023-08-21T00:26:50;24.41;75.95
77693;SHT31;66984;47.404;18.836;2023-08-21T00:27:53;24.41;75.95
77693;SHT31;66984;47.404;18.836;2023-08-21T00:28:56;24.38;75.95
77693;SHT31;66984;47.404;18.836;2023-08-21T00:30:00;24.41;75.91
77693;SHT31;66984;47.404;18.836;2023-08-21T00:31:04;24.39;76.04
77693;SHT31;66984;47.404;18.836;2023-08-21T00:32:07;24.37;76.03
77693;SHT31;66984;47.404;18.836;2023-08-21T00:33:10;24.38;76.03
77693;SHT31;66984;47.404;18.836;2023-08-21T00:34:13;24.38;76.12
77693;SHT31;66984;47.404;18.836;2023-08-21T00:35:16;24.38;76.12
77693;SHT31;66984;47.404;18.836;2023-08-21T00:36:19;24.37;76.18
77693;SHT31;66984;47.404;18.836;2023-08-21T00:37:23;24.37;76.21
77693;SHT31;66984;47.404;18.836;2023-08-21T00:38:26;24.37;76.24
77693;SHT31;66984;47.404;18.836;2023-08-21T00:39:29;24.38;76.23
77693;SHT31;66984;47.404;18.836;2023-08-21T00:40:32;24.37;76.35
77693;SHT31;66984;47.404;18.836;2023-08-21T00:41:35;24.32;76.36
77693;SHT31;66984;47.404;18.836;2023-08-21T00:42:38;24.31;76.40
77693;SHT31;66984;47.404;18.836;2023-08-21T00:43:41;24.34;76.38
77693;SHT31;66984;47.404;18.836;2023-08-21T00:44:44;24.32;76.41
77693;SHT31;66984;47.404;18.836;2023-08-21T00:45:49;24.32;76.43
77693;SHT31;66984;47.404;18.836;2023-08-21T00:46:53;24.31;76.42
77693;SHT31;66984;47.404;18.836;2023-08-21T00:47:56;24.32;76.42
77693;SHT31;66984;47.404;18.836;2023-08-21T00:48:59;24.29;76.47
77693;SHT31;66984;47.404;18.836;2023-08-21T00:50:02;24.28;76.48
77693;SHT31;66984;47.404;18.836;2023-08-21T00:51:06;24.25;76.55
77693;SHT31;66984;47.404;18.836;2023-08-21T00:52:12;24.25;76.55
77693;SHT31;66984;47.404;18.836;2023-08-21T00:53:15;24.25;76.55
77693;SHT31;66984;47.404;18.836;2023-08-21T00:54:19;24.27;76.57
77693;SHT31;66984;47.404;18.836;2023-08-21T00:55:22;24.25;76.58
77693;SHT31;66984;47.404;18.836;2023-08-21T00:56:26;24.24;76.59
77693;SHT31;66984;47.404;18.836;2023-08-21T00:57:29;24.25;76.59
77693;SHT31;66984;47.404;18.836;2023-08-21T00:58:32;24.25;76.55
77693;SHT31;66984;47.404;18.836;2023-08-21T00:59:55;24.24;76.51
77693;SHT31;66984;47.404;18.836;2023-08-21T01:00:58;24.27;76.44
77693;SHT31;66984;47.404;18.836;2023-08-21T01:02:01;24.25;76.30
77693;SHT31;66984;47.404;18.836;2023-08-21T01:03:04;24.25;76.23
77693;SHT31;66984;47.404;18.836;2023-08-21T01:04:07;24.22;76.28
77693;SHT31;66984;47.404;18.836;2023-08-21T01:05:11;24.24;76.28
77693;SHT31;66984;47.404;18.836;2023-08-21T01:06:14;24.24;76.33
77693;SHT31;66984;47.404;18.836;2023-08-21T01:07:17;24.24;76.35
77693;SHT31;66984;47.404;18.836;2023-08-21T01:08:28;24.18;76.41
77693;SHT31;66984;47.404;18.836;2023-08-21T01:11:18;24.17;76.44
77693;SHT31;66984;47.404;18.836;2023-08-21T01:12:32;24.18;76.46
77693;SHT31;66984;47.404;18.836;2023-08-21T01:15:07;24.14;76.55
77693;SHT31;66984;47.404;18.836;2023-08-21T01:16:13;24.16;76.65
77693;SHT31;66984;47.404;18.836;2023-08-21T01:17:17;24.10;76.78
77693;SHT31;66984;47.404;18.836;2023-08-21T01:18:22;24.10;76.76
77693;SHT31;66984;47.404;18.836;2023-08-21T01:19:47;24.08;76.72
77693;SHT31;66984;47.404;18.836;2023-08-21T01:20:51;24.10;76.64
77693;SHT31;66984;47.404;18.836;2023-08-21T01:21:54;24.07;76.55
77693;SHT31;66984;47.404;18.836;2023-08-21T01:23:04;24.10;76.36
77693;SHT31;66984;47.404;18.836;2023-08-21T01:24:07;24.07;76.35
77693;SHT31;66984;47.404;18.836;2023-08-21T01:25:10;24.07;76.44
77693;SHT31;66984;47.404;18.836;2023-08-21T01:26:13;24.06;76.44
77693;SHT31;66984;47.404;18.836;2023-08-21T01:27:16;24.06;76.48
77693;SHT31;66984;47.404;18.836;2023-08-21T01:28:19;24.06;76.46
77693;SHT31;66984;47.404;18.836;2023-08-21T01:29:22;24.06;76.42
77693;SHT31;66984;47.404;18.836;2023-08-21T01:30:26;24.06;76.40
77693;SHT31;66984;47.404;18.836;2023-08-21T01:31:33;24.04;76.32
77693;SHT31;66984;47.404;18.836;2023-08-21T01:33:08;24.06;76.15
77693;SHT31;66984;47.404;18.836;2023-08-21T01:34:14;24.04;75.97
77693;SHT31;66984;47.404;18.836;2023-08-21T01:35:18;24.06;75.99
77693;SHT31;66984;47.404;18.836;2023-08-21T01:36:22;24.01;76.04
77693;SHT31;66984;47.404;18.836;2023-08-21T01:37:26;23.98;76.10
77693;SHT31;66984;47.404;18.836;2023-08-21T01:38:32;23.94;76.19
77693;SHT31;66984;47.404;18.836;2023-08-21T01:39:35;23.96;76.23
77693;SHT31;66984;47.404;18.836;2023-08-21T01:40:40;23.92;76.30
77693;SHT31;66984;47.404;18.836;2023-08-21T01:41:43;23.90;76.30
77693;SHT31;66984;47.404;18.836;2023-08-21T01:42:46;23.90;76.32
77693;SHT31;66984;47.404;18.836;2023-08-21T01:43:49;23.92;76.34
77693;SHT31;66984;47.404;18.836;2023-08-21T01:44:52;23.93;76.31
77693;SHT31;66984;47.404;18.836;2023-08-21T01:45:55;23.90;76.34
77693;SHT31;66984;47.404;18.836;2023-08-21T01:46:58;23.86;76.33
77693;SHT31;66984;47.404;18.836;2023-08-21T01:48:01;23.88;76.36
77693;SHT31;66984;47.404;18.836;2023-08-21T01:49:04;23.87;76.39
77693;SHT31;66984;47.404;18.836;2023-08-21T01:50:07;23.86;76.39
77693;SHT31;66984;47.404;18.836;2023-08-21T01:51:10;23.84;76.42
77693;SHT31;66984;47.404;18.836;2023-08-21T01:52:13;23.80;76.51
77693;SHT31;66984;47.404;18.836;2023-08-21T01:53:16;23.80;76.53
77693;SHT31;66984;47.404;18.836;2023-08-21T01:54:19;23.79;76.53
77693;SHT31;66984;47.404;18.836;2023-08-21T01:55:22;23.76;76.52
77693;SHT31;66984;47.404;18.836;2023-08-21T01:56:25;23.76;76.52
77693;SHT31;66984;47.404;18.836;2023-08-21T01:57:28;23.76;76.46
77693;SHT31;66984;47.404;18.836;2023-08-21T01:58:31;23.76;76.36
77693;SHT31;66984;47.404;18.836;2023-08-21T01:59:33;23.76;76.31
77693;SHT31;66984;47.404;18.836;2023-08-21T02:00:36;23.74;76.19
77693;SHT31;66984;47.404;18.836;2023-08-21T02:01:39;23.73;76.19
77693;SHT31;66984;47.404;18.836;2023-08-21T02:02:42;23.74;76.08
77693;SHT31;66984;47.404;18.836;2023-08-21T02:03:46;23.71;76.05
77693;SHT31;66984;47.404;18.836;2023-08-21T02:04:49;23.76;76.05
77693;SHT31;66984;47.404;18.836;2023-08-21T02:05:55;23.71;76.05
77693;SHT31;66984;47.404;18.836;2023-08-21T02:07:00;23.71;76.02
77693;SHT31;66984;47.404;18.836;2023-08-21T02:08:03;23.67;76.04
77693;SHT31;66984;47.404;18.836;2023-08-21T02:09:06;23.66;75.99
77693;SHT31;66984;47.404;18.836;2023-08-21T02:10:10;23.67;76.02
77693;SHT31;66984;47.404;18.836;2023-08-21T02:11:13;23.66;75.97
77693;SHT31;66984;47.404;18.836;2023-08-21T02:12:16;23.65;75.94
77693;SHT31;66984;47.404;18.836;2023-08-21T02:13:19;23.63;75.98
77693;SHT31;66984;47.404;18.836;2023-08-21T02:14:22;23.58;76.06
77693;SHT31;66984;47.404;18.836;2023-08-21T02:15:25;23.59;76.09
77693;SHT31;66984;47.404;18.836;2023-08-21T02:16:28;23.53;76.11
77693;SHT31;66984;47.404;18.836;2023-08-21T02:17:31;23.55;76.10
77693;SHT31;66984;47.404;18.836;2023-08-21T02:18:35;23.50;76.12
77693;SHT31;66984;47.404;18.836;2023-08-21T02:19:38;23.52;76.12
77693;SHT31;66984;47.404;18.836;2023-08-21T02:20:41;23.49;76.07
77693;SHT31;66984;47.404;18.836;2023-08-21T02:21:44;23.49;76.08
77693;SHT31;66984;47.404;18.836;2023-08-21T02:22:46;23.49;76.02
77693;SHT31;66984;47.404;18.836;2023-08-21T02:23:49;23.46;76.11
77693;SHT31;66984;47.404;18.836;2023-08-21T02:24:52;23.48;76.15
77693;SHT31;66984;47.404;18.836;2023-08-21T02:25:55;23.50;76.26
77693;SHT31;66984;47.404;18.836;2023-08-21T02:26:58;23.48;76.31
77693;SHT31;66984;47.404;18.836;2023-08-21T02:28:01;23.48;76.32
77693;SHT31;66984;47.404;18.836;2023-08-21T02:29:06;23.48;76.24
77693;SHT31;66984;47.404;18.836;2023-08-21T02:30:09;23.43;76.33
77693;SHT31;66984;47.404;18.836;2023-08-21T02:31:12;23.42;76.39
77693;SHT31;66984;47.404;18.836;2023-08-21T02:32:16;23.42;76.43
77693;SHT31;66984;47.404;18.836;2023-08-21T02:33:19;23.39;76.46
77693;SHT31;66984;47.404;18.836;2023-08-21T02:34:22;23.42;76.52
77693;SHT31;66984;47.404;18.836;2023-08-21T02:35:24;23.39;76.55
77693;SHT31;66984;47.404;18.836;2023-08-21T02:36:27;23.41;76.57
77693;SHT31;66984;47.404;18.836;2023-08-21T02:37:30;23.41;76.57
77693;SHT31;66984;47.404;18.836;2023-08-21T02:38:33;23.39;76.66
77693;SHT31;66984;47.404;18.836;2023-08-21T02:39:36;23.39;76.72
77693;SHT31;66984;47.404;18.836;2023-08-21T02:40:39;23.39;76.72
77693;SHT31;66984;47.404;18.836;2023-08-21T02:41:42;23.39;76.79
77693;SHT31;66984;47.404;18.836;2023-08-21T02:42:45;23.37;76.79
77693;SHT31;66984;47.404;18.836;2023-08-21T02:43:48;23.37;76.83
77693;SHT31;66984;47.404;18.836;2023-08-21T02:44:51;23.38;76.78
77693;SHT31;66984;47.404;18.836;2023-08-21T02:45:54;23.37;76.79
77693;SHT31;66984;47.404;18.836;2023-08-21T02:46:57;23.32;76.83
77693;SHT31;66984;47.404;18.836;2023-08-21T02:47:59;23.33;76.93
77693;SHT31;66984;47.404;18.836;2023-08-21T02:49:02;23.33;76.99
77693;SHT31;66984;47.404;18.836;2023-08-21T02:50:06;23.32;76.99
77693;SHT31;66984;47.404;18.836;2023-08-21T02:51:09;23.35;76.98
77693;SHT31;66984;47.404;18.836;2023-08-21T02:52:12;23.37;77.02
77693;SHT31;66984;47.404;18.836;2023-08-21T02:53:15;23.37;76.99
77693;SHT31;66984;47.404;18.836;2023-08-21T02:54:19;23.39;77.10
77693;SHT31;66984;47.404;18.836;2023-08-21T02:55:22;23.38;77.17
77693;SHT31;66984;47.404;18.836;2023-08-21T02:56:25;23.37;77.16
77693;SHT31;66984;47.404;18.836;2023-08-21T02:57:28;23.38;77.12
77693;SHT31;66984;47.404;18.836;2023-08-21T02:58:31;23.35;77.08
77693;SHT31;66984;47.404;18.836;2023-08-21T02:59:34;23.35;77.12
77693;SHT31;66984;47.404;18.836;2023-08-21T03:00:37;23.35;77.18
77693;SHT31;66984;47.404;18.836;2023-08-21T03:01:40;23.32;77.16
77693;SHT31;66984;47.404;18.836;2023-08-21T03:02:43;23.35;77.14
77693;SHT31;66984;47.404;18.836;2023-08-21T03:03:46;23.33;77.12
77693;SHT31;66984;47.404;18.836;2023-08-21T03:04:49;23.33;77.07
77693;SHT31;66984;47.404;18.836;2023-08-21T03:05:52;23.33;77.03
77693;SHT31;66984;47.404;18.836;2023-08-21T03:06:55;23.35;77.05
77693;SHT31;66984;47.404;18.836;2023-08-21T03:07:58;23.32;76.99
77693;SHT31;66984;47.404;18.836;2023-08-21T03:09:01;23.33;76.98
77693;SHT31;66984;47.404;18.836;2023-08-21T03:10:05;23.29;77.05
77693;SHT31;66984;47.404;18.836;2023-08-21T03:11:09;23.30;76.97
77693;SHT31;66984;47.404;18.836;2023-08-21T03:12:12;23.28;76.95
77693;SHT31;66984;47.404;18.836;2023-08-21T03:13:15;23.26;76.95
77693;SHT31;66984;47.404;18.836;2023-08-21T03:14:21;23.25;76.97
77693;SHT31;66984;47.404;18.836;2023-08-21T03:15:24;23.26;76.92
77693;SHT31;66984;47.404;18.836;2023-08-21T03:16:27;23.26;76.87
77693;SHT31;66984;47.404;18.836;2023-08-21T03:17:30;23.28;76.79
77693;SHT31;66984;47.404;18.836;2023-08-21T03:18:53;23.28;76.77
77693;SHT31;66984;47.404;18.836;2023-08-21T03:19:56;23.26;76.69
77693;SHT31;66984;47.404;18.836;2023-08-21T03:20:59;23.25;76.71
77693;SHT31;66984;47.404;18.836;2023-08-21T03:22:02;23.22;76.78
77693;SHT31;66984;47.404;18.836;2023-08-21T03:23:05;23.22;76.84
77693;SHT31;66984;47.404;18.836;2023-08-21T03:24:08;23.23;76.86
77693;SHT31;66984;47.404;18.836;2023-08-21T03:25:11;23.23;76.87
77693;SHT31;66984;47.404;18.836;2023-08-21T03:26:14;23.22;76.84
77693;SHT31;66984;47.404;18.836;2023-08-21T03:27:18;23.21;76.83
77693;SHT31;66984;47.404;18.836;2023-08-21T03:28:21;23.21;76.81
77693;SHT31;66984;47.404;18.836;2023-08-21T03:29:24;23.21;76.87
77693;SHT31;66984;47.404;18.836;2023-08-21T03:30:27;23.21;76.85
77693;SHT31;66984;47.404;18.836;2023-08-21T03:31:30;23.19;76.85
77693;SHT31;66984;47.404;18.836;2023-08-21T03:32:33;23.18;76.87
77693;SHT31;66984;47.404;18.836;2023-08-21T03:33:37;23.18;76.93
77693;SHT31;66984;47.404;18.836;2023-08-21T03:34:40;23.21;76.81
77693;SHT31;66984;47.404;18.836;2023-08-21T03:35:42;23.16;76.76
77693;SHT31;66984;47.404;18.836;2023-08-21T03:36:45;23.16;76.78
77693;SHT31;66984;47.404;18.836;2023-08-21T03:37:48;23.15;76.85
77693;SHT31;66984;47.404;18.836;2023-08-21T03:38:51;23.12;76.94
77693;SHT31;66984;47.404;18.836;2023-08-21T03:39:54;23.15;76.93
77693;SHT31;66984;47.404;18.836;2023-08-21T03:40:59;23.11;76.97
77693;SHT31;66984;47.404;18.836;2023-08-21T03:42:02;23.09;77.01
77693;SHT31;66984;47.404;18.836;2023-08-21T03:43:05;23.12;77.05
77693;SHT31;66984;47.404;18.836;2023-08-21T03:44:08;23.11;77.04
77693;SHT31;66984;47.404;18.836;2023-08-21T03:45:11;23.12;77.03
77693;SHT31;66984;47.404;18.836;2023-08-21T03:46:14;23.09;77.00
77693;SHT31;66984;47.404;18.836;2023-08-21T03:47:17;23.11;77.00
77693;SHT31;66984;47.404;18.836;2023-08-21T03:48:20;23.12;77.03
77693;SHT31;66984;47.404;18.836;2023-08-21T03:49:23;23.09;76.99
77693;SHT31;66984;47.404;18.836;2023-08-21T03:50:26;23.09;77.04
77693;SHT31;66984;47.404;18.836;2023-08-21T03:51:29;23.09;77.06
77693;SHT31;66984;47.404;18.836;2023-08-21T03:52:32;23.08;77.06
77693;SHT31;66984;47.404;18.836;2023-08-21T03:53:35;23.05;77.09
77693;SHT31;66984;47.404;18.836;2023-08-21T03:54:38;23.07;77.14
77693;SHT31;66984;47.404;18.836;2023-08-21T03:55:41;23.07;77.20
77693;SHT31;66984;47.404;18.836;2023-08-21T03:56:43;23.07;77.22
77693;SHT31;66984;47.404;18.836;2023-08-21T03:57:46;23.05;77.15
77693;SHT31;66984;47.404;18.836;2023-08-21T03:58:49;23.07;77.07
77693;SHT31;66984;47.404;18.836;2023-08-21T03:59:53;23.07;77.03
77693;SHT31;66984;47.404;18.836;2023-08-21T04:00:56;23.08;77.05
77693;SHT31;66984;47.404;18.836;2023-08-21T04:01:59;23.07;77.07
77693;SHT31;66984;47.404;18.836;2023-08-21T04:03:02;23.07;77.01
77693;SHT31;66984;47.404;18.836;2023-08-21T04:04:05;23.04;77.00
77693;SHT31;66984;47.404;18.836;2023-08-21T04:05:08;23.04;77.00
77693;SHT31;66984;47.404;18.836;2023-08-21T04:06:13;23.02;76.97
77693;SHT31;66984;47.404;18.836;2023-08-21T04:07:16;23.07;76.96
77693;SHT31;66984;47.404;18.836;2023-08-21T04:08:19;23.07;76.93
77693;SHT31;66984;47.404;18.836;2023-08-21T04:09:22;23.08;76.79
77693;SHT31;66984;47.404;18.836;2023-08-21T04:10:25;23.07;76.71
77693;SHT31;66984;47.404;18.836;2023-08-21T04:11:28;23.08;76.71
77693;SHT31;66984;47.404;18.836;2023-08-21T04:12:31;23.07;76.68
77693;SHT31;66984;47.404;18.836;2023-08-21T04:13:34;23.05;76.71
77693;SHT31;66984;47.404;18.836;2023-08-21T04:14:37;23.01;76.73
77693;SHT31;66984;47.404;18.836;2023-08-21T04:15:45;23.01;76.81
77693;SHT31;66984;47.404;18.836;2023-08-21T04:16:48;23.02;76.82
77693;SHT31;66984;47.404;18.836;2023-08-21T04:17:51;23.00;76.90
77693;SHT31;66984;47.404;18.836;2023-08-21T04:18:54;22.97;76.95
77693;SHT31;66984;47.404;18.836;2023-08-21T04:19:57;22.95;77.00
77693;SHT31;66984;47.404;18.836;2023-08-21T04:21:00;22.97;77.05
77693;SHT31;66984;47.404;18.836;2023-08-21T04:22:03;22.98;77.09
77693;SHT31;66984;47.404;18.836;2023-08-21T04:23:06;22.97;77.10
77693;SHT31;66984;47.404;18.836;2023-08-21T04:24:08;22.95;77.16
77693;SHT31;66984;47.404;18.836;2023-08-21T04:25:11;22.95;77.22
77693;SHT31;66984;47.404;18.836;2023-08-21T04:26:14;22.97;77.23
77693;SHT31;66984;47.404;18.836;2023-08-21T04:27:17;22.94;77.21
77693;SHT31;66984;47.404;18.836;2023-08-21T04:28:20;22.94;77.28
77693;SHT31;66984;47.404;18.836;2023-08-21T04:29:23;22.95;77.25
77693;SHT31;66984;47.404;18.836;2023-08-21T04:30:26;22.94;77.27
77693;SHT31;66984;47.404;18.836;2023-08-21T04:31:29;22.97;77.25
77693;SHT31;66984;47.404;18.836;2023-08-21T04:32:32;23.00;77.29
77693;SHT31;66984;47.404;18.836;2023-08-21T04:33:35;22.98;77.26
77693;SHT31;66984;47.404;18.836;2023-08-21T04:34:38;23.00;77.34
77693;SHT31;66984;47.404;18.836;2023-08-21T04:35:41;22.98;77.43
77693;SHT31;66984;47.404;18.836;2023-08-21T04:36:44;23.00;77.52
77693;SHT31;66984;47.404;18.836;2023-08-21T04:37:47;23.00;77.49
77693;SHT31;66984;47.404;18.836;2023-08-21T04:38:50;23.00;77.53
77693;SHT31;66984;47.404;18.836;2023-08-21T04:39:54;23.00;77.52
77693;SHT31;66984;47.404;18.836;2023-08-21T04:41:08;23.02;77.47
77693;SHT31;66984;47.404;18.836;2023-08-21T04:42:11;22.98;77.55
77693;SHT31;66984;47.404;18.836;2023-08-21T04:43:14;23.00;77.58
77693;SHT31;66984;47.404;18.836;2023-08-21T04:44:17;22.98;77.53
77693;SHT31;66984;47.404;18.836;2023-08-21T04:45:20;23.00;77.52
77693;SHT31;66984;47.404;18.836;2023-08-21T04:46:23;23.01;77.57
77693;SHT31;66984;47.404;18.836;2023-08-21T04:47:26;23.02;77.66
77693;SHT31;66984;47.404;18.836;2023-08-21T04:48:30;23.01;77.65
77693;SHT31;66984;47.404;18.836;2023-08-21T04:49:33;23.02;77.60
77693;SHT31;66984;47.404;18.836;2023-08-21T04:50:36;23.07;77.53
77693;SHT31;66984;47.404;18.836;2023-08-21T04:51:38;23.08;77.57
77693;SHT31;66984;47.404;18.836;2023-08-21T04:52:41;23.07;77.60
77693;SHT31;66984;47.404;18.836;2023-08-21T04:53:44;23.09;77.60
77693;SHT31;66984;47.404;18.836;2023-08-21T04:54:48;23.09;77.58
77693;SHT31;66984;47.404;18.836;2023-08-21T04:55:51;23.11;77.63
77693;SHT31;66984;47.404;18.836;2023-08-21T04:56:54;23.15;77.59
77693;SHT31;66984;47.404;18.836;2023-08-21T04:57:57;23.15;77.54
77693;SHT31;66984;47.404;18.836;2023-08-21T04:59:01;23.14;77.60
77693;SHT31;66984;47.404;18.836;2023-08-21T05:00:04;23.18;77.59
77693;SHT31;66984;47.404;18.836;2023-08-21T05:01:07;23.19;77.63
77693;SHT31;66984;47.404;18.836;2023-08-21T05:02:11;23.19;77.62
77693;SHT31;66984;47.404;18.836;2023-08-21T05:03:14;23.21;77.62
77693;SHT31;66984;47.404;18.836;2023-08-21T05:04:17;23.21;77.65
77693;SHT31;66984;47.404;18.836;2023-08-21T05:05:20;23.22;77.66
77693;SHT31;66984;47.404;18.836;2023-08-21T05:06:23;23.26;77.70
77693;SHT31;66984;47.404;18.836;2023-08-21T05:07:26;23.26;77.72
77693;SHT31;66984;47.404;18.836;2023-08-21T05:08:31;23.28;77.74
77693;SHT31;66984;47.404;18.836;2023-08-21T05:09:34;23.29;77.78
77693;SHT31;66984;47.404;18.836;2023-08-21T05:10:37;23.30;77.82
77693;SHT31;66984;47.404;18.836;2023-08-21T05:11:40;23.32;77.92
77693;SHT31;66984;47.404;18.836;2023-08-21T05:12:43;23.33;77.83
77693;SHT31;66984;47.404;18.836;2023-08-21T05:13:46;23.35;77.86
77693;SHT31;66984;47.404;18.836;2023-08-21T05:14:49;23.38;77.91
77693;SHT31;66984;47.404;18.836;2023-08-21T05:15:53;23.39;77.90
77693;SHT31;66984;47.404;18.836;2023-08-21T05:16:57;23.38;78.07
77693;SHT31;66984;47.404;18.836;2023-08-21T05:18:00;23.39;77.95
77693;SHT31;66984;47.404;18.836;2023-08-21T05:19:03;23.43;77.95
77693;SHT31;66984;47.404;18.836;2023-08-21T05:20:06;23.43;77.84
77693;SHT31;66984;47.404;18.836;2023-08-21T05:21:09;23.46;77.82
77693;SHT31;66984;47.404;18.836;2023-08-21T05:22:12;23.49;77.77
77693;SHT31;66984;47.404;18.836;2023-08-21T05:23:16;23.53;77.74
77693;SHT31;66984;47.404;18.836;2023-08-21T05:24:19;23.52;77.72
77693;SHT31;66984;47.404;18.836;2023-08-21T05:25:21;23.55;77.76
77693;SHT31;66984;47.404;18.836;2023-08-21T05:26:24;23.50;77.81
77693;SHT31;66984;47.404;18.836;2023-08-21T05:27:28;23.53;77.79
77693;SHT31;66984;47.404;18.836;2023-08-21T05:28:31;23.52;77.83
77693;SHT31;66984;47.404;18.836;2023-08-21T05:29:34;23.53;77.88
77693;SHT31;66984;47.404;18.836;2023-08-21T05:30:37;23.56;77.85
77693;SHT31;66984;47.404;18.836;2023-08-21T05:31:40;23.53;77.99
77693;SHT31;66984;47.404;18.836;2023-08-21T05:32:45;23.56;78.06
77693;SHT31;66984;47.404;18.836;2023-08-21T05:33:48;23.53;78.16
77693;SHT31;66984;47.404;18.836;2023-08-21T05:34:51;23.55;78.11
77693;SHT31;66984;47.404;18.836;2023-08-21T05:35:56;23.60;78.08
77693;SHT31;66984;47.404;18.836;2023-08-21T05:36:59;23.60;78.11
77693;SHT31;66984;47.404;18.836;2023-08-21T05:38:03;23.63;78.13
77693;SHT31;66984;47.404;18.836;2023-08-21T05:39:07;23.59;78.26
77693;SHT31;66984;47.404;18.836;2023-08-21T05:40:10;23.60;78.30
77693;SHT31;66984;47.404;18.836;2023-08-21T05:41:17;23.62;78.56
77693;SHT31;66984;47.404;18.836;2023-08-21T05:42:20;23.62;78.64
77693;SHT31;66984;47.404;18.836;2023-08-21T05:43:23;23.63;78.64
77693;SHT31;66984;47.404;18.836;2023-08-21T05:44:26;23.63;78.82
77693;SHT31;66984;47.404;18.836;2023-08-21T05:45:30;23.66;78.79
77693;SHT31;66984;47.404;18.836;2023-08-21T05:46:33;23.65;78.85
77693;SHT31;66984;47.404;18.836;2023-08-21T05:47:36;23.69;78.83
77693;SHT31;66984;47.404;18.836;2023-08-21T05:48:39;23.73;78.83
77693;SHT31;66984;47.404;18.836;2023-08-21T05:49:42;23.73;78.79
77693;SHT31;66984;47.404;18.836;2023-08-21T05:50:50;23.76;78.75
77693;SHT31;66984;47.404;18.836;2023-08-21T05:51:53;23.81;78.88
77693;SHT31;66984;47.404;18.836;2023-08-21T05:52:56;23.84;78.88
77693;SHT31;66984;47.404;18.836;2023-08-21T05:54:00;23.86;78.82
77693;SHT31;66984;47.404;18.836;2023-08-21T05:55:04;23.90;78.82
77693;SHT31;66984;47.404;18.836;2023-08-21T05:56:07;23.88;78.99
77693;SHT31;66984;47.404;18.836;2023-08-21T05:57:10;23.93;79.06
77693;SHT31;66984;47.404;18.836;2023-08-21T05:58:13;23.93;79.31
77693;SHT31;66984;47.404;18.836;2023-08-21T05:59:27;23.94;79.23
77693;SHT31;66984;47.404;18.836;2023-08-21T06:00:33;23.98;79.08
77693;SHT31;66984;47.404;18.836;2023-08-21T06:01:36;24.01;78.95
77693;SHT31;66984;47.404;18.836;2023-08-21T06:02:39;24.01;78.84
77693;SHT31;66984;47.404;18.836;2023-08-21T06:03:44;24.00;78.87
77693;SHT31;66984;47.404;18.836;2023-08-21T06:04:47;24.07;78.83
77693;SHT31;66984;47.404;18.836;2023-08-21T06:05:50;24.11;78.78
77693;SHT31;66984;47.404;18.836;2023-08-21T06:06:53;24.14;78.72
77693;SHT31;66984;47.404;18.836;2023-08-21T06:07:56;24.14;78.68
77693;SHT31;66984;47.404;18.836;2023-08-21T06:08:59;24.17;78.79
77693;SHT31;66984;47.404;18.836;2023-08-21T06:10:02;24.22;78.66
77693;SHT31;66984;47.404;18.836;2023-08-21T06:11:07;24.28;78.53
77693;SHT31;66984;47.404;18.836;2023-08-21T06:12:10;24.28;78.55
77693;SHT31;66984;47.404;18.836;2023-08-21T06:13:13;24.34;78.47
77693;SHT31;66984;47.404;18.836;2023-08-21T06:14:16;24.34;78.42
77693;SHT31;66984;47.404;18.836;2023-08-21T06:15:19;24.37;78.31
77693;SHT31;66984;47.404;18.836;2023-08-21T06:16:22;24.37;78.19
77693;SHT31;66984;47.404;18.836;2023-08-21T06:17:27;24.41;78.02
77693;SHT31;66984;47.404;18.836;2023-08-21T06:18:31;24.44;77.78
77693;SHT31;66984;47.404;18.836;2023-08-21T06:19:33;24.45;77.66
77693;SHT31;66984;47.404;18.836;2023-08-21T06:20:36;24.49;77.43
77693;SHT31;66984;47.404;18.836;2023-08-21T06:21:39;24.51;77.16
77693;SHT31;66984;47.404;18.836;2023-08-21T06:22:42;24.56;77.01
77693;SHT31;66984;47.404;18.836;2023-08-21T06:23:45;24.59;76.89
77693;SHT31;66984;47.404;18.836;2023-08-21T06:24:48;24.68;76.84
77693;SHT31;66984;47.404;18.836;2023-08-21T06:25:51;24.72;76.72
77693;SHT31;66984;47.404;18.836;2023-08-21T06:26:54;24.73;76.60
77693;SHT31;66984;47.404;18.836;2023-08-21T06:27:57;24.77;76.59
77693;SHT31;66984;47.404;18.836;2023-08-21T06:29:00;24.82;76.65
77693;SHT31;66984;47.404;18.836;2023-08-21T06:30:03;24.86;76.60
77693;SHT31;66984;47.404;18.836;2023-08-21T06:31:08;24.90;76.40
77693;SHT31;66984;47.404;18.836;2023-08-21T06:32:11;24.96;76.39
77693;SHT31;66984;47.404;18.836;2023-08-21T06:33:14;24.99;76.59
77693;SHT31;66984;47.404;18.836;2023-08-21T06:34:17;25.09;76.85
77693;SHT31;66984;47.404;18.836;2023-08-21T06:35:20;25.07;76.41
77693;SHT31;66984;47.404;18.836;2023-08-21T06:36:23;25.13;76.28
77693;SHT31;66984;47.404;18.836;2023-08-21T06:37:26;25.17;76.15
77693;SHT31;66984;47.404;18.836;2023-08-21T06:38:29;25.26;76.20